Time;durP1;ratioP1;P1;durP2;ratioP2;P2;SDS_P1;SDS_P2;PMS_P1;PMS_P2;Temp;Humidity;BMP_temperature;BMP_pressure;BME280_temperature;BME280_humidity;BME280_pressure;Samples;Min_cycle;Max_cycle;Signal;HPM_P1;HPM_P2
2023/07/23 00:01:23;;;;;;;3.77;3.37;;;21.60;25.90;;;;;;10469972;28;20240;-78
2023/07/23 00:06:26;;;;;;;3.43;3.13;;;21.50;26.30;;;;;;10481499;28;20232;-78
2023/07/23 00:11:30;;;;;;;4.17;3.30;;;21.40;26.30;;;;;;10487841;28;20755;-78
2023/07/23 00:16:35;;;;;;;3.50;3.10;;;21.20;26.10;;;;;;10486602;28;20765;-78
2023/07/23 00:21:38;;;;;;;3.57;3.27;;;21.10;26.30;;;;;;10472769;28;20232;-78
2023/07/23 00:26:41;;;;;;;4.43;3.57;;;21.10;26.10;;;;;;10475388;28;20425;-78
2023/07/23 00:31:46;;;;;;;4.93;3.33;;;21.00;26.00;;;;;;10494222;28;20323;-77
2023/07/23 00:36:49;;;;;;;4.50;4.10;;;21.00;26.70;;;;;;10483559;28;20319;-78
2023/07/23 00:41:52;;;;;;;6.20;3.63;;;21.00;26.40;;;;;;10477665;28;20877;-78
2023/07/23 00:46:59;;;;;;;3.50;3.17;;;21.00;26.50;;;;;;10480116;28;20242;-78
2023/07/23 00:52:02;;;;;;;3.90;3.50;;;20.90;27.10;;;;;;10477146;28;20279;-78
2023/07/23 00:57:07;;;;;;;3.80;3.50;;;20.90;26.50;;;;;;10479305;28;20245;-77
2023/07/23 01:02:12;;;;;;;3.73;3.33;;;20.80;26.70;;;;;;10469593;28;20645;-78
2023/07/23 01:07:16;;;;;;;4.70;3.50;;;20.80;27.10;;;;;;10480482;28;20236;-77
2023/07/23 01:12:21;;;;;;;4.97;3.60;;;20.70;27.10;;;;;;10480608;28;20288;-77
2023/07/23 01:17:25;;;;;;;3.53;3.23;;;20.70;27.10;;;;;;10478465;28;20232;-78
2023/07/23 01:22:30;;;;;;;3.90;3.17;;;20.70;27.30;;;;;;10474598;28;20235;-78
2023/07/23 01:27:33;;;;;;;5.33;3.57;;;20.60;27.40;;;;;;10482498;28;20321;-78
2023/07/23 01:32:37;;;;;;;3.97;3.67;;;20.60;27.20;;;;;;10484859;28;20230;-77
2023/07/23 01:37:44;;;;;;;3.50;3.20;;;20.60;27.30;;;;;;10476533;28;20232;-77
2023/07/23 01:42:47;;;;;;;4.53;3.43;;;20.50;27.90;;;;;;10479608;28;20310;-78
2023/07/23 01:47:50;;;;;;;4.07;3.67;;;20.40;27.50;;;;;;10491059;28;20280;-78
2023/07/23 01:52:55;;;;;;;4.60;3.57;;;20.40;27.80;;;;;;10491425;28;20224;-78
2023/07/23 01:57:58;;;;;;;3.50;3.20;;;20.30;28.20;;;;;;10481651;28;20319;-78
2023/07/23 02:03:01;;;;;;;3.20;3.00;;;20.20;27.80;;;;;;10472797;28;20803;-77
2023/07/23 02:08:06;;;;;;;3.67;3.37;;;20.30;28.00;;;;;;10476371;28;20224;-77
2023/07/23 02:13:09;;;;;;;4.63;3.60;;;20.20;28.50;;;;;;10476788;28;20225;-78
2023/07/23 02:18:14;;;;;;;3.70;3.37;;;20.10;28.20;;;;;;10483913;28;20964;-78
2023/07/23 02:23:18;;;;;;;4.17;3.77;;;20.10;28.30;;;;;;10477502;28;20697;-77
2023/07/23 02:28:22;;;;;;;3.53;3.07;;;20.10;28.90;;;;;;10477555;28;20311;-78
2023/07/23 02:33:25;;;;;;;3.73;3.33;;;20.10;28.30;;;;;;10476950;28;20320;-77
2023/07/23 02:38:29;;;;;;;3.13;2.83;;;20.10;28.40;;;;;;10469638;28;20288;-78
2023/07/23 02:43:33;;;;;;;3.90;3.47;;;20.20;28.60;;;;;;10491972;28;20286;-78
2023/07/23 02:48:36;;;;;;;4.60;3.20;;;20.20;28.50;;;;;;10477780;28;20316;-78
2023/07/23 02:53:40;;;;;;;4.07;3.40;;;20.20;28.50;;;;;;10480747;28;20316;-78
2023/07/23 02:58:44;;;;;;;3.57;3.20;;;20.20;28.90;;;;;;10478675;28;20227;-78
2023/07/23 03:03:47;;;;;;;4.03;3.43;;;20.10;28.50;;;;;;10480297;28;20251;-78
2023/07/23 03:08:52;;;;;;;5.30;3.73;;;20.10;28.40;;;;;;10479712;28;20467;-78
2023/07/23 03:13:55;;;;;;;3.60;3.30;;;20.10;29.00;;;;;;10486104;28;20246;-78
2023/07/23 03:18:58;;;;;;;3.50;3.20;;;20.10;28.60;;;;;;10482543;28;20228;-78
2023/07/23 03:24:03;;;;;;;3.00;2.80;;;20.00;28.60;;;;;;10485436;28;20826;-78
2023/07/23 03:29:06;;;;;;;3.43;3.13;;;20.00;29.00;;;;;;10487148;28;20228;-77
2023/07/23 03:34:09;;;;;;;3.80;3.40;;;19.90;28.80;;;;;;10485420;28;20319;-77
2023/07/23 03:39:16;;;;;;;3.17;2.87;;;19.90;28.90;;;;;;10480512;28;21061;-78
2023/07/23 03:44:19;;;;;;;4.23;3.50;;;19.80;29.10;;;;;;10496387;28;20224;-77
2023/07/23 03:49:22;;;;;;;3.33;3.03;;;19.80;28.80;;;;;;10483124;28;20319;-78
2023/07/23 03:54:27;;;;;;;4.07;3.17;;;19.70;28.90;;;;;;10490643;28;20233;-77
2023/07/23 03:59:31;;;;;;;3.10;2.90;;;19.70;29.30;;;;;;10478238;28;20312;-77
2023/07/23 04:04:35;;;;;;;4.00;2.97;;;19.70;29.00;;;;;;10483258;28;20234;-78
2023/07/23 04:09:39;;;;;;;3.80;3.33;;;19.70;29.10;;;;;;10495214;28;20256;-77
2023/07/23 04:14:43;;;;;;;3.73;3.43;;;19.70;29.60;;;;;;10486787;28;20228;-78
2023/07/23 04:19:47;;;;;;;3.60;3.30;;;19.60;29.30;;;;;;10484156;28;20223;-78
2023/07/23 04:24:51;;;;;;;4.07;3.70;;;19.60;29.40;;;;;;10475231;28;20291;-77
2023/07/23 04:29:54;;;;;;;3.63;3.17;;;19.60;30.00;;;;;;10483865;28;20302;-78
2023/07/23 04:34:58;;;;;;;3.90;3.13;;;19.50;29.50;;;;;;10480546;28;20522;-78
2023/07/23 04:40:02;;;;;;;3.30;3.00;;;19.50;29.60;;;;;;10479302;28;20316;-78
2023/07/23 04:45:07;;;;;;;3.10;2.90;;;19.50;30.10;;;;;;10480278;28;20237;-78
2023/07/23 04:50:10;;;;;;;4.17;3.47;;;19.50;30.00;;;;;;10483657;28;20228;-78
2023/07/23 04:55:15;;;;;;;3.27;3.07;;;19.50;30.30;;;;;;10482135;28;20290;-78
2023/07/23 05:00:19;;;;;;;4.30;3.17;;;19.50;30.80;;;;;;10482451;28;20232;-78
2023/07/23 05:05:22;;;;;;;3.37;3.07;;;19.60;30.70;;;;;;10473710;28;20248;-78
2023/07/23 05:10:27;;;;;;;4.30;3.23;;;19.60;30.90;;;;;;10485231;28;20324;-78
2023/07/23 05:15:30;;;;;;;3.57;3.03;;;19.70;31.40;;;;;;10481016;28;20260;-78
2023/07/23 05:20:33;;;;;;;3.53;3.23;;;19.80;31.00;;;;;;10476234;28;20263;-78
2023/07/23 05:25:38;;;;;;;3.40;3.00;;;19.90;31.50;;;;;;10477828;28;20228;-78
2023/07/23 05:30:41;;;;;;;3.40;3.10;;;20.00;32.30;;;;;;10473299;28;20739;-78
2023/07/23 05:35:45;;;;;;;3.70;3.27;;;20.10;31.70;;;;;;10479746;28;20830;-78
2023/07/23 05:40:55;;;;;;;2.77;2.57;;;20.30;32.00;;;;;;10483453;28;20232;-78
2023/07/23 05:45:58;;;;;;;3.17;2.87;;;20.40;33.20;;;;;;10483007;28;20236;-78
2023/07/23 05:51:02;;;;;;;4.73;3.23;;;20.60;32.20;;;;;;10482996;28;20258;-78
2023/07/23 05:56:06;;;;;;;5.67;3.30;;;20.70;32.30;;;;;;10478783;28;20727;-79
2023/07/23 06:01:09;;;;;;;3.33;3.13;;;20.90;32.90;;;;;;10478678;28;20317;-78
2023/07/23 06:06:13;;;;;;;3.50;3.20;;;21.10;32.40;;;;;;10478277;28;20220;-78
2023/07/23 06:11:17;;;;;;;4.40;3.13;;;21.30;32.40;;;;;;10484327;28;20318;-79
2023/07/23 06:16:20;;;;;;;3.80;3.00;;;21.50;32.90;;;;;;10475939;28;20255;-79
2023/07/23 06:21:24;;;;;;;3.30;3.00;;;21.70;32.40;;;;;;10489066;28;20232;-79
2023/07/23 06:26:30;;;;;;;3.03;2.83;;;21.90;32.40;;;;;;10482307;28;20309;-79
2023/07/23 06:31:33;;;;;;;3.10;2.80;;;22.10;32.90;;;;;;10488256;28;20232;-79
2023/07/23 06:36:36;;;;;;;3.47;3.03;;;22.30;32.40;;;;;;10492346;28;20242;-79
2023/07/23 06:41:42;;;;;;;3.63;3.13;;;22.50;32.20;;;;;;10483985;28;20228;-79
2023/07/23 06:46:45;;;;;;;4.43;2.47;;;22.70;32.40;;;;;;10495406;28;20235;-79
2023/07/23 06:51:48;;;;;;;3.27;3.03;;;23.00;31.90;;;;;;10482148;28;20300;-79
2023/07/23 06:56:54;;;;;;;4.53;2.93;;;23.20;31.70;;;;;;10489631;28;20248;-79
2023/07/23 07:01:57;;;;;;;2.87;2.67;;;23.50;31.60;;;;;;10491148;28;20811;-80
2023/07/23 07:07:01;;;;;;;2.87;2.67;;;23.80;31.40;;;;;;10490931;28;20224;-79
2023/07/23 07:12:07;;;;;;;3.17;2.97;;;24.00;31.00;;;;;;10498033;28;20260;-79
2023/07/23 07:17:11;;;;;;;2.90;2.70;;;24.30;31.00;;;;;;10487455;28;20244;-79
2023/07/23 07:22:15;;;;;;;5.40;3.20;;;24.50;30.80;;;;;;10491112;28;20235;-80
2023/07/23 07:27:20;;;;;;;2.87;2.63;;;24.80;30.20;;;;;;10499384;28;20252;-80
2023/07/23 07:32:23;;;;;;;2.87;2.67;;;25.00;30.00;;;;;;10496108;28;20228;-80
2023/07/23 07:37:27;;;;;;;3.20;3.00;;;25.30;29.90;;;;;;10494932;28;20260;-80
2023/07/23 07:42:32;;;;;;;2.80;2.60;;;25.60;29.70;;;;;;10502172;28;20221;-79
2023/07/23 07:47:35;;;;;;;3.30;3.00;;;25.80;29.10;;;;;;10495895;28;20255;-80
2023/07/23 07:52:38;;;;;;;2.67;2.47;;;26.00;29.20;;;;;;10501381;28;20648;-80
2023/07/23 07:57:44;;;;;;;2.53;2.37;;;26.30;28.80;;;;;;10493810;28;20572;-80
2023/07/23 08:02:47;;;;;;;2.50;2.30;;;26.50;27.90;;;;;;10493895;28;20220;-80
2023/07/23 08:07:51;;;;;;;2.80;2.50;;;26.70;28.00;;;;;;10492420;28;20228;-79
2023/07/23 08:12:56;;;;;;;2.77;2.43;;;26.90;27.50;;;;;;10493311;28;20319;-80
2023/07/23 08:18:00;;;;;;;2.30;2.20;;;27.10;27.00;;;;;;10495189;28;20243;-80
2023/07/23 08:23:04;;;;;;;2.40;2.20;;;27.40;27.10;;;;;;10493695;28;20255;-80
2023/07/23 08:28:12;;;;;;;2.53;2.33;;;27.60;26.70;;;;;;10487605;28;20247;-81
2023/07/23 08:33:18;;;;;;;2.50;2.40;;;27.80;24.90;;;;;;10481499;28;20315;-79
2023/07/23 08:38:23;;;;;;;2.57;2.37;;;28.00;24.70;;;;;;10470380;28;20237;-78
2023/07/23 08:44:01;;;;;;;2.23;2.13;;;28.30;25.00;;;;;;10462763;28;20221;-76
2023/07/23 08:49:06;;;;;;;2.40;2.20;;;28.50;24.30;;;;;;10402068;28;20244;-76
2023/07/23 08:54:10;;;;;;;2.60;2.40;;;28.70;24.40;;;;;;10433958;28;20232;-78
2023/07/23 08:59:15;;;;;;;2.20;2.10;;;28.90;24.00;;;;;;10425487;28;20228;-79
2023/07/23 09:04:19;;;;;;;2.83;2.20;;;29.10;22.80;;;;;;10432220;28;20232;-79
2023/07/23 09:09:22;;;;;;;2.33;2.23;;;29.30;23.00;;;;;;10430286;28;20230;-79
2023/07/23 09:14:27;;;;;;;3.10;2.80;;;29.40;23.20;;;;;;10430168;28;20640;-79
2023/07/23 09:19:31;;;;;;;2.50;2.40;;;29.50;22.40;;;;;;10434157;28;20222;-79
2023/07/23 09:24:34;;;;;;;2.90;2.70;;;29.70;22.30;;;;;;10426240;28;20236;-78
2023/07/23 09:29:41;;;;;;;2.80;2.60;;;29.80;22.10;;;;;;10434444;28;20324;-80
2023/07/23 09:34:47;;;;;;;3.00;2.43;;;30.00;21.10;;;;;;10433565;28;20224;-79
2023/07/23 09:39:55;;;;;;;2.60;2.40;;;30.20;21.20;;;;;;10442174;28;20308;-80
2023/07/23 09:45:02;;;;;;;3.10;2.60;;;30.30;20.50;;;;;;10432587;28;20264;-79
2023/07/23 09:50:09;;;;;;;3.47;2.87;;;30.40;20.40;;;;;;10424130;28;20638;-80
2023/07/23 09:55:12;;;;;;;2.90;2.37;;;30.50;20.80;;;;;;10433457;28;20518;-79
2023/07/23 10:00:18;;;;;;;2.70;2.50;;;30.60;21.00;;;;;;10430880;28;20233;-80
2023/07/23 10:05:21;;;;;;;2.60;2.40;;;30.70;20.30;;;;;;10426568;28;20241;-80
2023/07/23 10:10:24;;;;;;;2.70;2.50;;;30.80;20.50;;;;;;10430107;28;20233;-78
2023/07/23 10:15:30;;;;;;;3.57;2.27;;;30.90;20.60;;;;;;10431096;28;20737;-80
2023/07/23 10:20:34;;;;;;;2.73;2.50;;;31.00;19.70;;;;;;10431321;28;20252;-76
2023/07/23 10:25:38;;;;;;;2.90;2.70;;;31.20;20.30;;;;;;10427651;28;20325;-76
2023/07/23 10:30:45;;;;;;;2.77;2.57;;;31.30;20.00;;;;;;10411286;28;20267;-76
2023/07/23 10:36:05;;;;;;;3.07;2.87;;;31.50;19.10;;;;;;10404550;28;20245;-78
2023/07/23 10:41:08;;;;;;;3.77;3.30;;;31.50;18.80;;;;;;10402420;28;20245;-78
2023/07/23 10:46:14;;;;;;;3.70;3.33;;;31.60;18.90;;;;;;10418557;28;20445;-79
2023/07/23 10:51:18;;;;;;;3.57;3.27;;;31.60;18.00;;;;;;10400597;28;20230;-78
2023/07/23 10:56:29;;;;;;;3.57;3.27;;;31.70;18.30;;;;;;10412287;28;20703;-78
2023/07/23 11:01:36;;;;;;;4.10;3.80;;;31.70;17.50;;;;;;10410935;28;20222;-77
2023/07/23 11:06:54;;;;;;;3.93;3.60;;;31.70;17.70;;;;;;10408028;28;20858;-80
2023/07/23 11:11:58;;;;;;;4.53;4.13;;;31.70;18.00;;;;;;10410420;28;20988;-77
2023/07/23 11:17:05;;;;;;;7.40;4.73;;;31.70;18.00;;;;;;10409291;28;20736;-76
2023/07/23 11:22:08;;;;;;;4.97;4.57;;;31.80;17.10;;;;;;10410691;28;20229;-76
2023/07/23 11:27:12;;;;;;;5.70;4.93;;;31.80;17.70;;;;;;10424533;28;20224;-76
2023/07/23 11:32:17;;;;;;;6.80;4.87;;;31.80;17.50;;;;;;10419440;28;20866;-79
2023/07/23 11:37:21;;;;;;;6.73;5.53;;;31.80;17.10;;;;;;10411982;28;20252;-79
2023/07/23 11:42:24;;;;;;;6.43;5.83;;;31.70;17.10;;;;;;10417429;28;20226;-80
2023/07/23 11:47:30;;;;;;;7.33;6.07;;;31.70;17.30;;;;;;10409069;28;20236;-79
2023/07/23 11:52:34;;;;;;;7.13;6.47;;;31.80;17.00;;;;;;10410702;28;20237;-79
2023/07/23 11:57:37;;;;;;;12.50;7.50;;;31.90;17.20;;;;;;10411568;28;20225;-79
2023/07/23 12:02:41;;;;;;;9.00;8.10;;;31.90;16.70;;;;;;10428792;28;20227;-79
2023/07/23 12:07:45;;;;;;;9.27;7.87;;;31.80;16.10;;;;;;10427375;28;20226;-78
2023/07/23 12:12:49;;;;;;;9.43;8.07;;;31.70;16.80;;;;;;10426995;28;20679;-79
2023/07/23 12:17:55;;;;;;;11.20;7.87;;;31.70;16.80;;;;;;10436265;28;20244;-78
2023/07/23 12:23:02;;;;;;;8.67;7.73;;;31.70;16.50;;;;;;10429536;28;20228;-79
2023/07/23 12:28:07;;;;;;;9.17;8.20;;;31.70;16.20;;;;;;10427048;28;20220;-78
2023/07/23 12:33:12;;;;;;;10.10;9.10;;;31.80;16.40;;;;;;10421515;28;20229;-80
2023/07/23 12:38:16;;;;;;;8.93;8.10;;;31.80;15.70;;;;;;10409359;28;20239;-75
2023/07/23 12:43:19;;;;;;;10.90;8.67;;;31.70;16.40;;;;;;10403032;28;20657;-76
2023/07/23 12:48:23;;;;;;;10.40;9.40;;;31.80;16.30;;;;;;10404988;28;20383;-76
2023/07/23 12:53:27;;;;;;;11.30;10.10;;;31.80;15.50;;;;;;10407147;28;20376;-77
2023/07/23 12:58:30;;;;;;;10.57;9.53;;;31.90;15.40;;;;;;10421834;28;20238;-76
2023/07/23 13:03:35;;;;;;;11.73;10.53;;;31.80;15.30;;;;;;10429468;28;20237;-76
2023/07/23 13:08:38;;;;;;;11.53;10.33;;;31.70;15.00;;;;;;10443906;28;20253;-79
2023/07/23 13:13:41;;;;;;;10.47;9.37;;;31.60;15.20;;;;;;10432745;28;20317;-81
2023/07/23 13:18:46;;;;;;;12.13;10.27;;;31.50;15.50;;;;;;10419300;28;20255;-80
2023/07/23 13:23:49;;;;;;;11.33;10.13;;;31.50;15.20;;;;;;10418295;28;20226;-82
2023/07/23 13:28:52;;;;;;;12.40;10.70;;;31.50;15.00;;;;;;10420692;28;20221;-79
2023/07/23 13:33:57;;;;;;;12.13;10.77;;;31.50;15.00;;;;;;10427977;28;20705;-80
2023/07/23 13:39:00;;;;;;;12.97;11.63;;;31.50;15.10;;;;;;10424587;28;20229;-79
2023/07/23 13:44:04;;;;;;;12.93;11.30;;;31.60;14.90;;;;;;10471156;28;20251;-78
2023/07/23 13:49:08;;;;;;;13.50;11.47;;;31.60;14.70;;;;;;10459896;28;20236;-77
2023/07/23 13:54:13;;;;;;;12.03;10.70;;;31.60;14.60;;;;;;10465108;28;20224;-78
2023/07/23 13:59:18;;;;;;;13.90;11.77;;;31.70;15.00;;;;;;10469161;28;20712;-78
2023/07/23 14:04:23;;;;;;;13.13;11.83;;;31.70;14.40;;;;;;10463047;28;20228;-78
2023/07/23 14:09:27;;;;;;;11.93;10.13;;;31.80;14.20;;;;;;10470306;28;20309;-78
2023/07/23 14:14:31;;;;;;;12.37;10.87;;;31.90;14.20;;;;;;10468932;28;20233;-79
2023/07/23 14:19:36;;;;;;;12.70;11.40;;;31.90;14.30;;;;;;10470681;28;20227;-78
2023/07/23 14:24:40;;;;;;;12.17;10.87;;;31.80;13.70;;;;;;10474694;28;20258;-78
2023/07/23 14:29:44;;;;;;;12.87;10.37;;;31.70;13.10;;;;;;10474615;28;20231;-78
2023/07/23 14:34:50;;;;;;;11.50;10.30;;;31.60;13.40;;;;;;10471807;28;20224;-77
2023/07/23 14:39:54;;;;;;;11.30;10.10;;;31.50;13.60;;;;;;10466911;28;20250;-77
2023/07/23 14:44:57;;;;;;;12.63;10.63;;;31.40;14.10;;;;;;10451421;28;20232;-76
2023/07/23 14:50:02;;;;;;;10.70;9.60;;;31.30;14.10;;;;;;10474731;28;20276;-76
2023/07/23 14:55:06;;;;;;;11.73;9.60;;;31.20;14.30;;;;;;10479720;28;20227;-76
2023/07/23 15:00:10;;;;;;;9.90;8.90;;;31.30;14.30;;;;;;10462634;28;20311;-78
2023/07/23 15:05:15;;;;;;;10.27;9.17;;;31.30;14.00;;;;;;10483264;28;20263;-79
2023/07/23 15:10:20;;;;;;;9.17;7.77;;;31.20;13.90;;;;;;10489612;28;20641;-78
2023/07/23 15:15:25;;;;;;;8.30;7.50;;;31.00;14.30;;;;;;10472234;28;20236;-77
2023/07/23 15:20:30;;;;;;;8.47;7.67;;;30.90;14.50;;;;;;10496188;28;20623;-77
2023/07/23 15:25:34;;;;;;;8.43;7.57;;;30.90;14.40;;;;;;10493698;28;20228;-79
2023/07/23 15:30:39;;;;;;;8.60;7.07;;;30.80;14.60;;;;;;10494417;28;20287;-78
2023/07/23 15:35:44;;;;;;;8.63;7.40;;;30.80;14.60;;;;;;10476057;28;20293;-79
2023/07/23 15:40:49;;;;;;;7.97;7.17;;;30.70;14.90;;;;;;10487041;28;20335;-75
2023/07/23 15:45:53;;;;;;;7.67;6.87;;;30.60;15.00;;;;;;10481839;28;20303;-79
2023/07/23 15:50:58;;;;;;;7.53;6.83;;;30.60;15.00;;;;;;10489718;28;20572;-79
2023/07/23 15:56:01;;;;;;;7.27;6.57;;;30.60;15.00;;;;;;10492797;28;20232;-79
2023/07/23 16:01:04;;;;;;;7.00;6.30;;;30.50;15.30;;;;;;10482289;28;20224;-78
2023/07/23 16:06:09;;;;;;;7.17;6.47;;;30.40;15.10;;;;;;10475338;28;20855;-78
2023/07/23 16:11:12;;;;;;;7.73;6.93;;;30.30;15.30;;;;;;10482021;28;20232;-81
2023/07/23 16:16:15;;;;;;;7.67;6.83;;;30.30;15.50;;;;;;10474367;28;20236;-78
2023/07/23 16:21:20;;;;;;;8.27;7.37;;;30.30;15.50;;;;;;10486834;28;20274;-77
2023/07/23 16:26:23;;;;;;;7.60;6.73;;;30.30;15.60;;;;;;10481223;28;20251;-77
2023/07/23 16:31:26;;;;;;;7.60;6.90;;;30.30;15.70;;;;;;10488864;28;20228;-78
2023/07/23 16:36:33;;;;;;;8.40;7.43;;;30.30;15.80;;;;;;10487862;28;20239;-78
2023/07/23 16:41:37;;;;;;;7.83;7.03;;;30.30;15.60;;;;;;10487245;28;20251;-78
2023/07/23 16:46:40;;;;;;;7.47;6.63;;;30.20;15.80;;;;;;10474554;28;20273;-78
2023/07/23 16:51:45;;;;;;;7.63;6.93;;;30.20;16.00;;;;;;10494990;28;20220;-77
2023/07/23 16:56:49;;;;;;;7.90;7.10;;;30.20;16.00;;;;;;10494448;28;20670;-78
2023/07/23 17:01:52;;;;;;;8.10;7.30;;;30.20;16.00;;;;;;10491606;28;20220;-77
2023/07/23 17:06:56;;;;;;;8.97;7.37;;;30.20;16.00;;;;;;10491528;28;20327;-78
2023/07/23 17:11:59;;;;;;;8.93;6.73;;;30.20;16.20;;;;;;10495437;28;20261;-77
2023/07/23 17:17:03;;;;;;;9.20;7.27;;;30.10;16.10;;;;;;10490840;28;20240;-77
2023/07/23 17:22:08;;;;;;;8.93;7.57;;;30.10;16.60;;;;;;10482692;28;20254;-77
2023/07/23 17:27:11;;;;;;;7.60;6.63;;;30.00;16.70;;;;;;10489667;28;20315;-77
2023/07/23 17:32:14;;;;;;;7.30;6.60;;;29.90;16.40;;;;;;10484522;28;20707;-78
2023/07/23 17:37:19;;;;;;;7.90;7.13;;;29.70;16.40;;;;;;10478893;28;20282;-77
2023/07/23 17:42:22;;;;;;;6.63;6.03;;;29.60;16.70;;;;;;10479675;28;20220;-77
2023/07/23 17:47:26;;;;;;;7.00;6.07;;;29.60;16.90;;;;;;10490258;28;20312;-78
2023/07/23 17:52:30;;;;;;;6.53;5.93;;;29.50;16.60;;;;;;10491020;28;20220;-77
2023/07/23 17:57:33;;;;;;;6.50;5.63;;;29.50;16.70;;;;;;10472115;28;20234;-77
2023/07/23 18:02:37;;;;;;;6.50;5.90;;;29.50;16.50;;;;;;10474969;28;20229;-77
2023/07/23 18:07:41;;;;;;;6.13;5.53;;;29.60;16.30;;;;;;10477078;28;20258;-77
2023/07/23 18:12:45;;;;;;;6.63;6.00;;;29.50;16.30;;;;;;10479468;28;20216;-77
2023/07/23 18:17:48;;;;;;;6.57;5.87;;;29.50;16.40;;;;;;10483311;28;20307;-77
2023/07/23 18:22:53;;;;;;;6.07;5.47;;;29.50;16.50;;;;;;10469963;28;20235;-77
2023/07/23 18:27:56;;;;;;;5.70;5.20;;;29.40;16.60;;;;;;10476458;28;20315;-76
2023/07/23 18:32:59;;;;;;;6.07;5.50;;;29.40;16.70;;;;;;10476738;28;20301;-77
2023/07/23 18:38:04;;;;;;;5.60;5.10;;;29.30;16.80;;;;;;10476470;28;20229;-76
2023/07/23 18:43:07;;;;;;;6.27;5.67;;;29.30;16.80;;;;;;10473804;28;20799;-77
2023/07/23 18:48:10;;;;;;;5.90;5.40;;;29.20;16.90;;;;;;10468232;28;20243;-77
2023/07/23 18:53:17;;;;;;;6.40;5.80;;;29.10;16.90;;;;;;10476123;28;20245;-76
2023/07/23 18:58:20;;;;;;;6.30;5.70;;;29.00;17.20;;;;;;10474818;28;20327;-75
2023/07/23 19:03:23;;;;;;;6.00;5.40;;;28.90;17.40;;;;;;10492644;28;20748;-77
2023/07/23 19:08:28;;;;;;;6.07;5.47;;;28.90;17.50;;;;;;10487712;28;21417;-75
2023/07/23 19:13:31;;;;;;;6.13;5.30;;;28.80;17.80;;;;;;10494170;28;20228;-76
2023/07/23 19:18:35;;;;;;;6.90;6.13;;;28.80;17.80;;;;;;10489709;28;20296;-75
2023/07/23 19:23:40;;;;;;;6.40;5.80;;;28.80;18.00;;;;;;10486801;28;20229;-77
2023/07/23 19:28:43;;;;;;;7.10;6.00;;;28.80;18.20;;;;;;10472389;28;20228;-76
2023/07/23 19:33:46;;;;;;;7.50;6.70;;;28.80;18.30;;;;;;10466997;28;20224;-76
2023/07/23 19:38:51;;;;;;;6.87;6.20;;;28.70;18.50;;;;;;10474626;28;20316;-78
2023/07/23 19:43:54;;;;;;;7.17;6.43;;;28.60;18.80;;;;;;10476784;28;20877;-78
2023/07/23 19:48:58;;;;;;;7.20;6.50;;;28.40;18.80;;;;;;10478600;28;20798;-77
2023/07/23 19:54:02;;;;;;;7.47;6.53;;;28.20;19.00;;;;;;10476011;28;20718;-77
2023/07/23 19:59:06;;;;;;;7.50;6.77;;;27.90;19.90;;;;;;10480460;28;20221;-77
2023/07/23 20:04:09;;;;;;;7.17;6.47;;;27.80;20.00;;;;;;10477067;28;20224;-78
2023/07/23 20:09:14;;;;;;;7.03;6.23;;;27.70;19.90;;;;;;10476733;28;20243;-76
2023/07/23 20:14:17;;;;;;;9.83;7.20;;;27.60;20.30;;;;;;10469476;28;20225;-76
2023/07/23 20:19:21;;;;;;;8.33;6.80;;;27.50;20.10;;;;;;10478806;28;20303;-78
2023/07/23 20:24:25;;;;;;;7.57;6.77;;;27.50;20.30;;;;;;10479098;28;20316;-76
2023/07/23 20:29:29;;;;;;;7.33;5.93;;;27.40;20.70;;;;;;10481750;28;20239;-77
2023/07/23 20:34:33;;;;;;;6.57;5.90;;;27.30;20.90;;;;;;10483262;28;21009;-77
2023/07/23 20:39:38;;;;;;;8.53;6.53;;;27.40;20.80;;;;;;10473397;28;20220;-77
2023/07/23 20:44:41;;;;;;;7.07;6.37;;;27.30;21.20;;;;;;10474130;28;20870;-76
2023/07/23 20:49:46;;;;;;;8.30;7.40;;;27.30;21.20;;;;;;10480571;28;20639;-76
2023/07/23 20:54:50;;;;;;;9.50;7.07;;;27.30;21.20;;;;;;10483123;28;20229;-77
2023/07/23 20:59:53;;;;;;;8.13;7.20;;;27.20;21.60;;;;;;10473851;28;20224;-77
2023/07/23 21:04:57;;;;;;;7.93;7.13;;;27.00;21.60;;;;;;10474576;28;20243;-77
2023/07/23 21:10:02;;;;;;;10.20;9.20;;;26.90;21.80;;;;;;10479609;28;20229;-77
2023/07/23 21:15:07;;;;;;;8.03;7.23;;;26.80;22.40;;;;;;10475143;28;20758;-77
2023/07/23 21:20:10;;;;;;;7.90;7.17;;;26.70;22.10;;;;;;10476483;28;20258;-77
2023/07/23 21:25:15;;;;;;;8.90;6.73;;;26.50;22.40;;;;;;10475817;28;20260;-76
2023/07/23 21:30:19;;;;;;;9.73;7.17;;;26.30;23.00;;;;;;10471664;28;20264;-73
2023/07/23 21:35:22;;;;;;;11.17;7.17;;;26.10;22.80;;;;;;10471902;28;20236;-76
2023/07/23 21:40:26;;;;;;;7.87;6.67;;;26.00;22.90;;;;;;10472466;28;20245;-77
2023/07/23 21:45:29;;;;;;;9.20;6.60;;;25.80;23.60;;;;;;10479052;28;20285;-77
2023/07/23 21:50:33;;;;;;;8.60;6.67;;;25.70;23.30;;;;;;10472899;28;20244;-76
2023/07/23 21:55:38;;;;;;;8.40;6.33;;;25.60;23.50;;;;;;10477974;28;20232;-76
2023/07/23 22:00:42;;;;;;;10.47;6.93;;;25.50;24.00;;;;;;10471119;28;20220;-76
2023/07/23 22:05:46;;;;;;;11.27;6.50;;;25.40;23.80;;;;;;10468559;28;20230;-76
2023/07/23 22:10:50;;;;;;;6.73;6.03;;;25.30;23.80;;;;;;10468117;28;20327;-76
2023/07/23 22:15:54;;;;;;;8.90;6.00;;;25.40;24.10;;;;;;10478066;28;20324;-76
2023/07/23 22:20:57;;;;;;;7.17;5.93;;;25.40;24.00;;;;;;10475323;28;20735;-75
2023/07/23 22:26:01;;;;;;;7.87;6.70;;;25.40;24.10;;;;;;10474326;28;20229;-77
2023/07/23 22:31:05;;;;;;;7.60;6.80;;;25.40;24.50;;;;;;10477988;28;20221;-77
2023/07/23 22:36:08;;;;;;;10.27;6.97;;;25.40;24.20;;;;;;10476288;28;20233;-75
2023/07/23 22:41:12;;;;;;;8.23;6.57;;;25.30;24.20;;;;;;10478825;28;20232;-76
2023/07/23 22:46:15;;;;;;;7.70;6.87;;;25.30;24.70;;;;;;10477596;28;20224;-77
2023/07/23 22:51:19;;;;;;;10.73;7.17;;;25.20;24.40;;;;;;10475128;28;20228;-76
2023/07/23 22:56:24;;;;;;;10.87;7.00;;;25.10;24.50;;;;;;10472497;28;20711;-75
2023/07/23 23:01:27;;;;;;;10.97;6.90;;;24.90;24.80;;;;;;10470570;28;20228;-77
2023/07/23 23:06:32;;;;;;;7.80;6.43;;;24.80;24.70;;;;;;10472618;28;20228;-77
2023/07/23 23:11:37;;;;;;;8.30;6.90;;;24.70;24.70;;;;;;10476408;28;20225;-76
2023/07/23 23:16:40;;;;;;;9.20;6.83;;;24.60;25.20;;;;;;10484835;28;20318;-75
2023/07/23 23:21:43;;;;;;;7.97;6.93;;;24.50;25.00;;;;;;10484745;28;20718;-75
2023/07/23 23:26:48;;;;;;;8.67;6.60;;;24.50;25.20;;;;;;10474865;28;20306;-77
2023/07/23 23:31:51;;;;;;;7.40;6.70;;;24.50;25.60;;;;;;10482373;28;20213;-77
2023/07/23 23:36:54;;;;;;;7.83;7.03;;;24.50;25.30;;;;;;10480298;28;20240;-76
2023/07/23 23:41:59;;;;;;;8.57;6.63;;;24.40;25.50;;;;;;10477977;28;20311;-76
2023/07/23 23:47:02;;;;;;;9.37;6.80;;;24.30;25.70;;;;;;10474598;28;20344;-75
2023/07/23 23:52:05;;;;;;;8.23;6.63;;;24.10;25.50;;;;;;10477897;28;20220;-77
2023/07/23 23:57:10;;;;;;;9.03;6.90;;;24.00;25.60;;;;;;10490717;28;20332;-78
